Time;durP1;ratioP1;P1;durP2;ratioP2;P2;SDS_P1;SDS_P2;PMS_P1;PMS_P2;Temp;Humidity;BMP_temperature;BMP_pressure;BME280_temperature;BME280_humidity;BME280_pressure;Samples;Min_cycle;Max_cycle;Signal;HPM_P1;HPM_P2
2022/08/08 00:00:11;;;;;;;2.97;0.70;;;13.50;99.90;;;;;;4977093;28;20037;-72
2022/08/08 00:02:47;;;;;;;3.70;0.80;;;13.80;99.90;;;;;;4976122;28;20031;-72
2022/08/08 00:05:17;;;;;;;6.70;0.80;;;13.80;99.90;;;;;;4976099;28;20030;-73
2022/08/08 00:08:02;;;;;;;4.20;0.50;;;13.80;99.90;;;;;;4977578;28;20027;-73
2022/08/08 00:10:33;;;;;;;2.70;0.75;;;13.80;99.90;;;;;;4975653;28;20513;-72
2022/08/08 00:13:08;;;;;;;2.60;0.60;;;14.00;99.90;;;;;;4975832;28;20019;-72
2022/08/08 00:15:46;;;;;;;4.93;0.65;;;14.10;99.90;;;;;;4977305;28;20026;-73
2022/08/08 00:18:47;;;;;;;5.15;0.90;;;14.30;99.90;;;;;;4975223;28;20019;-72
2022/08/08 00:21:31;;;;;;;2.60;0.68;;;14.50;99.90;;;;;;4975303;28;20392;-73
2022/08/08 00:24:07;;;;;;;4.15;0.70;;;14.50;99.90;;;;;;4975558;28;20451;-74
2022/08/08 00:26:39;;;;;;;1.80;0.50;;;14.40;99.90;;;;;;4959557;28;20106;-72
2022/08/08 00:29:21;;;;;;;2.95;1.08;;;14.30;99.90;;;;;;4975187;28;20027;-73
2022/08/08 00:31:52;;;;;;;3.40;0.47;;;14.40;99.90;;;;;;4977000;28;20074;-74
2022/08/08 00:37:36;;;;;;;2.58;0.45;;;14.90;99.90;;;;;;4976994;28;20042;-74
2022/08/08 00:40:28;;;;;;;1.35;0.30;;;15.10;99.90;;;;;;4974846;28;20027;-73
2022/08/08 00:43:22;;;;;;;1.52;0.32;;;15.30;99.90;;;;;;4976312;28;20110;-72
2022/08/08 00:46:02;;;;;;;2.03;0.40;;;15.20;99.90;;;;;;4975703;28;20050;-73
2022/08/08 00:48:41;;;;;;;2.00;0.43;;;15.20;99.90;;;;;;4976222;28;20383;-72
2022/08/08 00:51:26;;;;;;;2.67;0.47;;;15.00;99.90;;;;;;4974624;28;20105;-72
2022/08/08 00:54:00;;;;;;;4.10;0.80;;;15.20;99.90;;;;;;4976451;28;20031;-73
2022/08/08 00:57:03;;;;;;;2.80;0.60;;;15.40;99.90;;;;;;4974479;28;20058;-72
2022/08/08 00:59:52;;;;;;;8.45;0.85;;;15.50;99.90;;;;;;4974408;28;20085;-72
2022/08/08 01:02:29;;;;;;;2.42;0.40;;;15.70;99.90;;;;;;4976003;28;20061;-73
2022/08/08 01:05:34;;;;;;;2.35;0.60;;;16.10;99.90;;;;;;4976237;28;20101;-72
2022/08/08 01:08:38;;;;;;;3.00;0.50;;;16.10;99.90;;;;;;4959494;28;20543;-71
2022/08/08 01:11:36;;;;;;;1.83;0.50;;;16.20;99.90;;;;;;4976347;28;20113;-71
2022/08/08 01:14:27;;;;;;;3.00;0.40;;;16.00;99.90;;;;;;4975620;28;20031;-73
2022/08/08 01:17:27;;;;;;;3.72;0.55;;;16.30;99.90;;;;;;4974897;28;20029;-73
2022/08/08 01:20:28;;;;;;;1.63;0.55;;;16.40;99.90;;;;;;4974156;28;20127;-72
2022/08/08 01:23:10;;;;;;;3.00;0.60;;;16.60;99.90;;;;;;4974113;28;20051;-72
2022/08/08 01:26:08;;;;;;;1.88;0.70;;;16.70;99.90;;;;;;4975406;28;20015;-72
2022/08/08 01:28:38;;;;;;;4.30;0.65;;;16.70;99.90;;;;;;4975279;28;20033;-72
2022/08/08 01:31:26;;;;;;;3.58;0.55;;;16.80;99.90;;;;;;4975200;28;20031;-71
2022/08/08 01:34:11;;;;;;;2.80;0.50;;;16.80;99.90;;;;;;4973729;28;20027;-73
2022/08/08 01:37:15;;;;;;;1.50;0.30;;;16.50;99.90;;;;;;4975411;28;20033;-71
2022/08/08 01:40:03;;;;;;;5.43;0.60;;;16.50;99.90;;;;;;4975124;28;20428;-72
2022/08/08 01:42:58;;;;;;;4.95;0.60;;;16.60;99.90;;;;;;4973627;28;20031;-73
2022/08/08 01:45:37;;;;;;;3.85;0.50;;;16.50;99.90;;;;;;4974678;28;20388;-72
2022/08/08 01:48:22;;;;;;;4.57;0.60;;;16.70;99.90;;;;;;4974945;28;20029;-72
2022/08/08 01:51:29;;;;;;;2.03;0.60;;;17.00;99.90;;;;;;4974879;28;20037;-72
2022/08/08 01:54:02;;;;;;;4.43;0.55;;;17.00;99.90;;;;;;4973625;28;20034;-72
2022/08/08 01:56:45;;;;;;;4.95;0.50;;;17.00;99.90;;;;;;4975093;28;20027;-71
2022/08/08 01:59:27;;;;;;;3.08;0.28;;;16.90;99.90;;;;;;4973646;28;20031;-72
2022/08/08 02:02:13;;;;;;;2.63;0.40;;;17.00;99.90;;;;;;4973604;28;20027;-73
2022/08/08 02:05:05;;;;;;;1.65;0.50;;;16.80;99.90;;;;;;4975144;28;20431;-72
2022/08/08 02:07:57;;;;;;;3.78;0.70;;;17.00;99.90;;;;;;4973375;28;20029;-73
2022/08/08 02:10:30;;;;;;;4.35;0.43;;;17.10;99.90;;;;;;4973481;28;20484;-73
2022/08/08 02:13:09;;;;;;;2.03;0.40;;;17.00;99.90;;;;;;4974613;28;20019;-74
2022/08/08 02:16:06;;;;;;;4.20;0.80;;;16.90;99.90;;;;;;4974615;28;20066;-72
2022/08/08 02:18:43;;;;;;;3.25;0.65;;;17.30;99.90;;;;;;4974486;28;20022;-72
2022/08/08 02:24:52;;;;;;;1.60;0.35;;;17.20;99.90;;;;;;4975048;28;20030;-73
2022/08/08 02:27:37;;;;;;;2.45;0.40;;;17.30;99.90;;;;;;4942118;28;20039;-72
2022/08/08 02:30:40;;;;;;;2.50;0.40;;;17.30;99.90;;;;;;4973311;28;20023;-73
2022/08/08 02:33:42;;;;;;;2.05;0.50;;;17.40;99.90;;;;;;4956299;28;20491;-73
2022/08/08 02:36:25;;;;;;;1.65;0.20;;;17.40;99.90;;;;;;4974548;28;20440;-75
2022/08/08 02:39:13;;;;;;;1.45;0.45;;;17.30;99.90;;;;;;4975040;28;20060;-75
2022/08/08 02:41:43;;;;;;;1.23;0.40;;;17.20;99.90;;;;;;4974758;28;20026;-76
2022/08/08 02:44:32;;;;;;;1.95;0.70;;;17.40;99.90;;;;;;4978083;28;20395;-73
2022/08/08 02:47:35;;;;;;;2.13;0.60;;;17.40;99.90;;;;;;4978535;28;20026;-74
2022/08/08 02:50:39;;;;;;;0.93;0.43;;;17.40;99.90;;;;;;4975918;28;20030;-75
2022/08/08 02:53:35;;;;;;;4.20;0.40;;;17.20;99.90;;;;;;4977418;28;20037;-76
2022/08/08 02:56:18;;;;;;;3.33;0.50;;;17.30;99.90;;;;;;4975683;28;20622;-74
2022/08/08 02:59:22;;;;;;;2.55;0.60;;;17.30;99.90;;;;;;4977012;28;20065;-76
2022/08/08 03:01:58;;;;;;;1.98;0.60;;;17.50;99.90;;;;;;4976637;28;20038;-74
2022/08/08 03:04:47;;;;;;;4.22;0.63;;;17.70;99.90;;;;;;4978333;28;20102;-74
2022/08/08 03:07:39;;;;;;;2.67;0.50;;;17.70;99.90;;;;;;4978518;28;20019;-74
2022/08/08 03:10:41;;;;;;;3.13;0.50;;;17.50;99.90;;;;;;4976521;28;20027;-75
2022/08/08 03:13:17;;;;;;;1.75;0.43;;;17.60;99.90;;;;;;4947454;28;20045;-75
2022/08/08 03:15:53;;;;;;;2.88;0.90;;;17.70;99.90;;;;;;4978607;28;20023;-74
2022/08/08 03:18:43;;;;;;;1.92;0.40;;;17.50;99.90;;;;;;4978475;28;20019;-73
2022/08/08 03:21:10;;;;;;;2.13;0.20;;;17.40;99.90;;;;;;4945979;28;20034;-73
2022/08/08 03:23:37;;;;;;;1.27;0.38;;;17.10;99.90;;;;;;4977798;28;20027;-73
2022/08/08 03:26:05;;;;;;;0.73;0.30;;;17.30;99.90;;;;;;4976103;28;20097;-74
2022/08/08 03:28:43;;;;;;;2.13;0.32;;;17.50;99.90;;;;;;4977152;28;20019;-75
2022/08/08 03:33:57;;;;;;;1.02;0.30;;;17.90;99.90;;;;;;4977887;28;20391;-74
2022/08/08 03:36:25;;;;;;;2.53;0.40;;;17.50;99.90;;;;;;4977500;28;20119;-75
2022/08/08 03:38:53;;;;;;;3.70;0.50;;;17.80;99.90;;;;;;4976286;28;20023;-73
2022/08/08 03:41:20;;;;;;;2.92;0.50;;;17.50;99.90;;;;;;4977557;28;20103;-75
2022/08/08 03:43:58;;;;;;;2.55;0.40;;;17.70;99.90;;;;;;4976295;28;20023;-76
2022/08/08 03:46:26;;;;;;;2.45;0.63;;;17.60;99.90;;;;;;4977554;28;20528;-76
2022/08/08 03:49:03;;;;;;;2.38;0.30;;;17.60;99.90;;;;;;4976424;28;20483;-76
2022/08/08 03:51:31;;;;;;;1.73;0.50;;;17.70;99.90;;;;;;4977734;28;20050;-74
2022/08/08 03:53:59;;;;;;;2.60;0.30;;;17.80;99.90;;;;;;4959909;28;20480;-76
2022/08/08 03:56:26;;;;;;;1.33;0.40;;;17.80;99.90;;;;;;4976038;28;20029;-74
2022/08/08 03:58:53;;;;;;;3.75;0.52;;;17.50;99.90;;;;;;4977460;28;20031;-76
2022/08/08 04:01:21;;;;;;;4.00;0.60;;;17.60;99.90;;;;;;4977342;28;20054;-76
2022/08/08 04:03:49;;;;;;;4.85;0.60;;;17.50;99.90;;;;;;4977083;28;20054;-77
2022/08/08 04:06:17;;;;;;;1.25;0.40;;;17.40;99.90;;;;;;4976073;28;20125;-76
2022/08/08 04:08:45;;;;;;;2.08;0.40;;;17.30;99.90;;;;;;4976124;28;20026;-75
2022/08/08 04:11:12;;;;;;;2.80;0.40;;;17.40;99.90;;;;;;4977163;28;20066;-76
2022/08/08 04:13:39;;;;;;;3.90;0.60;;;17.50;99.90;;;;;;4977214;28;20019;-76
2022/08/08 04:16:07;;;;;;;3.55;0.60;;;17.40;99.90;;;;;;4976093;28;20065;-75
2022/08/08 04:18:34;;;;;;;3.97;0.68;;;17.40;99.90;;;;;;4975331;28;20085;-76
2022/08/08 04:21:02;;;;;;;1.75;0.50;;;17.20;99.90;;;;;;4975555;28;20068;-76
2022/08/08 04:23:29;;;;;;;3.97;0.75;;;17.20;99.90;;;;;;4976990;28;20360;-76
2022/08/08 04:25:56;;;;;;;3.53;0.80;;;17.00;99.90;;;;;;4976810;28;20023;-76
2022/08/08 04:28:24;;;;;;;1.63;0.32;;;16.90;99.90;;;;;;4977067;28;20154;-74
2022/08/08 04:30:54;;;;;;;4.35;0.43;;;16.90;99.90;;;;;;4976557;28;20031;-76
2022/08/08 04:33:21;;;;;;;2.38;0.47;;;17.00;99.90;;;;;;4975528;28;20038;-75
2022/08/08 04:35:49;;;;;;;2.45;0.50;;;16.80;99.90;;;;;;4976800;28;20034;-75
2022/08/08 04:38:16;;;;;;;4.43;0.60;;;16.70;99.90;;;;;;4976624;28;20491;-75
2022/08/08 04:40:45;;;;;;;5.32;0.60;;;16.70;99.90;;;;;;4976818;28;20106;-75
2022/08/08 04:43:12;;;;;;;3.92;0.50;;;16.70;99.90;;;;;;4975309;28;20019;-76
2022/08/08 04:45:42;;;;;;;4.32;0.80;;;16.80;99.90;;;;;;4975062;28;20046;-74
2022/08/08 04:48:10;;;;;;;2.35;0.60;;;16.90;99.90;;;;;;4975516;28;20018;-74
2022/08/08 04:50:37;;;;;;;3.72;0.43;;;17.00;99.90;;;;;;4976220;28;20034;-75
2022/08/08 04:53:05;;;;;;;4.72;0.90;;;17.00;99.90;;;;;;4974846;28;20392;-76
2022/08/08 04:55:34;;;;;;;6.63;0.60;;;17.10;99.90;;;;;;4976160;28;20034;-75
2022/08/08 04:58:01;;;;;;;3.35;0.50;;;16.90;99.90;;;;;;4959532;28;20039;-76
2022/08/08 05:00:29;;;;;;;1.65;0.60;;;16.90;99.90;;;;;;4976281;28;20110;-76
2022/08/08 05:02:56;;;;;;;4.05;0.70;;;16.60;99.90;;;;;;4959132;28;20031;-76
2022/08/08 05:05:24;;;;;;;1.80;0.50;;;16.50;99.90;;;;;;4975679;28;20023;-76
2022/08/08 05:07:51;;;;;;;2.10;0.40;;;16.30;99.90;;;;;;4976980;28;20029;-76
2022/08/08 05:10:19;;;;;;;4.35;0.80;;;16.30;99.90;;;;;;4959084;28;20081;-77
2022/08/08 05:12:47;;;;;;;2.67;0.40;;;16.30;99.90;;;;;;4976623;28;20019;-77
2022/08/08 05:15:14;;;;;;;3.20;0.50;;;16.20;99.90;;;;;;4959378;28;20054;-76
2022/08/08 05:17:41;;;;;;;2.55;0.50;;;16.20;99.90;;;;;;4974896;28;20395;-75
2022/08/08 05:20:09;;;;;;;1.33;0.20;;;16.20;99.90;;;;;;4975626;28;20028;-76
2022/08/08 05:22:37;;;;;;;2.80;0.43;;;16.10;99.90;;;;;;4976447;28;20026;-76
2022/08/08 05:25:05;;;;;;;4.00;0.80;;;16.10;99.90;;;;;;4976092;28;20023;-76
2022/08/08 05:27:33;;;;;;;2.72;0.63;;;16.00;99.90;;;;;;4974950;28;20122;-76
2022/08/08 05:30:01;;;;;;;1.90;0.52;;;16.00;99.90;;;;;;4976417;28;20033;-78
2022/08/08 05:32:29;;;;;;;3.20;0.60;;;16.00;99.90;;;;;;4975176;28;20558;-77
2022/08/08 05:34:59;;;;;;;2.78;0.50;;;15.90;99.90;;;;;;4976354;28;20097;-76
2022/08/08 05:37:30;;;;;;;1.77;0.38;;;15.80;99.90;;;;;;4975671;28;20054;-77
2022/08/08 05:39:59;;;;;;;4.63;0.57;;;15.70;99.90;;;;;;4974831;28;20049;-77
2022/08/08 05:42:50;;;;;;;2.78;0.40;;;15.70;99.90;;;;;;4975004;28;20026;-76
2022/08/08 05:45:17;;;;;;;;;;;15.70;99.90;;;;;;4974940;28;20061;-76
2022/08/08 05:47:46;;;;;;;3.35;0.60;;;15.80;99.90;;;;;;4974257;28;20359;-76
2022/08/08 05:50:13;;;;;;;4.38;0.65;;;15.70;99.90;;;;;;4975831;28;20023;-76
2022/08/08 05:52:41;;;;;;;5.75;0.77;;;15.70;99.90;;;;;;4976503;28;20050;-77
2022/08/08 05:55:10;;;;;;;6.20;0.80;;;15.70;99.90;;;;;;4976747;28;20023;-76
2022/08/08 05:57:39;;;;;;;4.80;0.60;;;15.60;99.90;;;;;;4975164;28;20106;-75
2022/08/08 06:00:09;;;;;;;2.65;0.70;;;15.60;99.90;;;;;;4973340;28;20081;-76
2022/08/08 06:03:10;;;;;;;2.38;0.63;;;15.40;99.90;;;;;;4975285;28;20023;-76
2022/08/08 06:05:31;;;;;;;6.03;0.70;;;15.40;99.90;;;;;;4973438;28;20093;-74
2022/08/08 06:07:59;;;;;;;3.20;0.60;;;15.50;99.90;;;;;;4974835;28;20015;-75
2022/08/08 06:10:32;;;;;;;6.45;1.35;;;15.40;99.90;;;;;;4975310;28;20075;-75
2022/08/08 06:13:01;;;;;;;4.20;0.82;;;15.40;99.90;;;;;;4975074;28;20076;-76
2022/08/08 06:15:31;;;;;;;3.03;0.65;;;15.40;99.90;;;;;;4957755;28;20023;-76
2022/08/08 06:18:00;;;;;;;3.22;0.60;;;15.20;99.90;;;;;;4975013;28;20019;-76
2022/08/08 06:20:27;;;;;;;5.13;0.68;;;15.10;99.90;;;;;;4973568;28;20083;-76
2022/08/08 06:22:55;;;;;;;2.53;0.60;;;15.00;99.90;;;;;;4975506;28;20382;-76
2022/08/08 06:25:23;;;;;;;2.88;0.57;;;14.90;99.90;;;;;;4974084;28;20387;-73
2022/08/08 06:27:55;;;;;;;5.88;0.70;;;14.80;99.90;;;;;;4975508;28;20030;-76
2022/08/08 06:30:23;;;;;;;2.00;0.50;;;14.80;99.90;;;;;;4973860;28;20031;-75
2022/08/08 06:32:56;;;;;;;4.72;0.75;;;14.80;99.90;;;;;;4975025;28;20077;-76
2022/08/08 06:35:24;;;;;;;5.43;0.52;;;14.70;99.90;;;;;;4973683;28;20109;-76
2022/08/08 06:37:56;;;;;;;4.35;0.80;;;14.60;99.90;;;;;;4973656;28;20023;-75
2022/08/08 06:40:28;;;;;;;3.25;0.77;;;14.60;99.90;;;;;;4974763;28;20538;-75
2022/08/08 06:43:09;;;;;;;2.33;0.50;;;14.50;99.90;;;;;;4974901;28;20038;-76
2022/08/08 06:45:38;;;;;;;4.25;0.60;;;14.50;99.90;;;;;;4973211;28;20471;-76
2022/08/08 06:48:05;;;;;;;3.97;0.60;;;14.40;99.90;;;;;;4973919;28;20406;-76
2022/08/08 06:50:33;;;;;;;2.47;0.70;;;14.30;99.90;;;;;;4973782;28;20019;-75
2022/08/08 06:53:06;;;;;;;3.60;0.80;;;14.20;99.90;;;;;;4973677;28;20034;-75
2022/08/08 06:55:36;;;;;;;3.58;0.80;;;14.20;99.90;;;;;;4973277;28;20019;-74
2022/08/08 06:58:03;;;;;;;6.97;0.70;;;14.20;99.90;;;;;;4973955;28;20117;-76
2022/08/08 07:00:39;;;;;;;5.97;1.23;;;14.10;99.90;;;;;;4975690;28;20268;-76
2022/08/08 07:03:17;;;;;;;4.10;0.70;;;14.00;99.90;;;;;;4973817;28;20558;-73
2022/08/08 07:05:53;;;;;;;3.67;0.50;;;14.00;99.90;;;;;;4974533;28;20097;-73
2022/08/08 07:08:28;;;;;;;4.68;0.70;;;13.90;99.90;;;;;;4973331;28;20078;-72
2022/08/08 07:11:02;;;;;;;7.38;0.70;;;13.90;99.90;;;;;;4973577;28;20031;-73
2022/08/08 07:13:43;;;;;;;2.65;0.75;;;13.80;99.90;;;;;;4957870;28;20049;-72
2022/08/08 07:16:28;;;;;;;5.68;0.82;;;13.70;99.90;;;;;;4973990;28;20034;-72
2022/08/08 07:19:07;;;;;;;4.93;0.80;;;13.60;99.90;;;;;;4957736;28;20031;-71
2022/08/08 07:21:45;;;;;;;3.60;0.70;;;13.50;99.90;;;;;;4972859;28;20034;-74
2022/08/08 07:24:24;;;;;;;4.20;0.82;;;13.50;99.90;;;;;;4973144;28;20061;-74
2022/08/08 07:26:54;;;;;;;3.90;0.75;;;13.40;99.90;;;;;;4973331;28;20359;-72
2022/08/08 07:29:23;;;;;;;2.22;0.60;;;13.40;99.90;;;;;;4959078;28;20034;-72
2022/08/08 07:31:51;;;;;;;2.45;0.82;;;13.40;99.90;;;;;;4976501;28;20038;-72
2022/08/08 07:34:19;;;;;;;6.63;0.80;;;13.30;99.90;;;;;;4976267;28;20026;-72
2022/08/08 07:36:48;;;;;;;4.75;0.93;;;13.40;99.90;;;;;;4977652;28;20034;-73
2022/08/08 07:39:22;;;;;;;4.32;0.85;;;13.30;99.90;;;;;;4977798;28;20031;-73
2022/08/08 07:41:50;;;;;;;3.40;0.82;;;13.30;99.90;;;;;;4977406;28;20023;-75
2022/08/08 07:44:18;;;;;;;4.15;0.93;;;13.20;99.90;;;;;;4976086;28;20022;-72
2022/08/08 07:46:46;;;;;;;5.38;0.80;;;13.10;99.90;;;;;;4957934;28;20039;-73
2022/08/08 07:49:13;;;;;;;3.45;1.15;;;13.10;99.90;;;;;;4956874;28;20019;-73
2022/08/08 07:51:41;;;;;;;4.88;0.80;;;13.10;99.90;;;;;;4958265;28;20027;-74
2022/08/08 07:54:13;;;;;;;4.82;0.75;;;13.00;99.90;;;;;;4958267;28;20027;-75
2022/08/08 07:56:58;;;;;;;2.60;0.80;;;13.00;99.90;;;;;;4957033;28;20035;-74
2022/08/08 07:59:30;;;;;;;4.65;1.00;;;13.00;99.90;;;;;;4958293;28;20023;-74
2022/08/08 08:02:04;;;;;;;2.75;1.10;;;13.10;99.90;;;;;;4958455;28;20027;-75
2022/08/08 08:04:39;;;;;;;6.88;1.13;;;13.10;99.90;;;;;;4956765;28;20038;-74
2022/08/08 08:07:07;;;;;;;5.03;0.90;;;13.10;99.90;;;;;;4958361;28;20031;-73
2022/08/08 08:09:40;;;;;;;5.88;0.77;;;13.10;99.90;;;;;;4958025;28;20022;-73
2022/08/08 08:12:11;;;;;;;4.25;1.05;;;13.20;99.90;;;;;;4957251;29;20420;-73
2022/08/08 08:14:50;;;;;;;4.38;0.80;;;13.10;99.90;;;;;;4956846;28;20034;-73
2022/08/08 08:17:19;;;;;;;2.85;0.80;;;13.10;99.90;;;;;;4958293;28;20476;-74
2022/08/08 08:19:53;;;;;;;5.13;0.80;;;13.00;99.90;;;;;;4957671;28;20031;-74
2022/08/08 08:22:20;;;;;;;3.88;0.95;;;13.00;99.90;;;;;;4956566;29;20063;-73
2022/08/08 08:24:48;;;;;;;3.30;0.90;;;13.00;99.90;;;;;;4957815;28;20023;-74
2022/08/08 08:27:15;;;;;;;4.93;0.90;;;13.00;99.90;;;;;;4956351;28;20118;-73
2022/08/08 08:29:43;;;;;;;5.90;1.25;;;13.00;99.90;;;;;;4956261;28;20027;-73
2022/08/08 08:32:10;;;;;;;3.67;1.00;;;13.00;99.90;;;;;;4956463;28;20104;-74
2022/08/08 08:34:38;;;;;;;4.53;1.35;;;13.00;99.90;;;;;;4957617;28;20051;-74
2022/08/08 08:37:05;;;;;;;5.68;1.70;;;13.00;99.90;;;;;;4956526;28;20031;-73
2022/08/08 08:39:32;;;;;;;5.15;1.20;;;13.00;99.90;;;;;;4957064;28;20029;-74
2022/08/08 08:42:01;;;;;;;8.80;2.22;;;13.00;99.90;;;;;;4955638;28;20439;-74
2022/08/08 08:44:28;;;;;;;7.35;1.33;;;12.90;99.90;;;;;;4957390;28;20019;-74
2022/08/08 08:46:57;;;;;;;6.13;1.17;;;12.90;99.90;;;;;;4975194;28;20023;-74
2022/08/08 08:49:24;;;;;;;5.38;1.40;;;12.90;99.90;;;;;;4975077;28;20065;-75
2022/08/08 08:51:55;;;;;;;5.20;1.15;;;12.90;99.90;;;;;;4976471;28;20033;-75
2022/08/08 08:54:24;;;;;;;6.60;1.10;;;12.80;99.90;;;;;;4976700;28;20030;-74
2022/08/08 08:56:56;;;;;;;7.72;1.40;;;12.70;99.90;;;;;;4975012;28;20023;-76
2022/08/08 08:59:27;;;;;;;5.50;0.98;;;12.70;99.90;;;;;;4975373;28;20034;-76
2022/08/08 09:01:57;;;;;;;7.05;1.30;;;12.70;99.90;;;;;;4976032;28;20073;-75
2022/08/08 09:04:27;;;;;;;4.53;1.50;;;12.70;99.90;;;;;;4976440;28;20019;-75
2022/08/08 09:06:58;;;;;;;5.75;1.27;;;12.80;99.90;;;;;;4976589;28;20030;-75
2022/08/08 09:09:32;;;;;;;3.90;1.00;;;12.80;99.90;;;;;;4975430;28;20035;-76
2022/08/08 09:12:04;;;;;;;4.47;1.20;;;12.80;99.90;;;;;;4976449;28;20142;-75
2022/08/08 09:14:32;;;;;;;5.30;1.10;;;12.70;99.90;;;;;;4974678;28;20038;-74
2022/08/08 09:17:00;;;;;;;4.63;1.00;;;12.80;99.90;;;;;;4976329;28;20049;-73
2022/08/08 09:19:28;;;;;;;4.60;0.90;;;12.80;99.90;;;;;;4974807;28;20031;-75
2022/08/08 09:21:57;;;;;;;4.40;0.82;;;12.80;99.90;;;;;;4976129;28;20081;-73
2022/08/08 09:24:25;;;;;;;4.47;1.23;;;12.80;99.90;;;;;;4975097;28;20026;-74
2022/08/08 09:27:11;;;;;;;3.33;1.00;;;12.70;99.90;;;;;;4976150;28;20041;-76
2022/08/08 09:30:02;;;;;;;4.97;1.13;;;12.80;99.90;;;;;;4976386;28;20019;-75
2022/08/08 09:32:37;;;;;;;4.03;1.00;;;12.70;99.90;;;;;;4974475;28;20487;-73
2022/08/08 09:35:10;;;;;;;4.70;2.00;;;12.80;99.90;;;;;;4975676;28;20147;-74
2022/08/08 09:37:50;;;;;;;4.25;1.00;;;12.80;99.90;;;;;;4975913;28;20030;-73
2022/08/08 09:40:20;;;;;;;3.53;0.73;;;12.90;99.90;;;;;;4975877;28;20031;-73
2022/08/08 09:42:54;;;;;;;3.43;1.30;;;13.00;99.90;;;;;;4974013;28;20042;-73
2022/08/08 09:45:30;;;;;;;6.00;0.85;;;13.00;99.90;;;;;;4974247;28;20631;-74
2022/08/08 09:48:02;;;;;;;6.95;1.20;;;13.00;99.90;;;;;;4974589;28;20058;-75
2022/08/08 09:50:32;;;;;;;4.57;1.13;;;12.90;99.90;;;;;;4975736;28;20110;-74
2022/08/08 09:53:05;;;;;;;3.22;1.05;;;12.80;99.90;;;;;;4974080;28;20023;-73
2022/08/08 09:55:32;;;;;;;6.70;1.30;;;12.80;99.90;;;;;;4976166;28;20040;-74
2022/08/08 09:58:07;;;;;;;4.13;1.05;;;12.70;99.90;;;;;;4975499;28;20019;-73
2022/08/08 10:00:37;;;;;;;4.22;1.00;;;12.70;99.90;;;;;;4975890;28;20023;-74
2022/08/08 10:03:05;;;;;;;4.18;1.40;;;12.80;99.90;;;;;;4958503;28;20031;-74
2022/08/08 10:05:37;;;;;;;3.03;1.00;;;12.80;99.90;;;;;;4975044;28;20030;-74
2022/08/08 10:08:05;;;;;;;3.95;1.20;;;12.70;99.90;;;;;;4974074;28;20181;-75
2022/08/08 10:10:38;;;;;;;5.85;1.80;;;12.70;99.90;;;;;;4975517;28;20055;-75
2022/08/08 10:13:20;;;;;;;5.90;1.80;;;12.50;99.90;;;;;;4975309;28;20023;-75
2022/08/08 10:15:57;;;;;;;5.63;1.10;;;12.50;99.90;;;;;;4974992;28;20022;-76
2022/08/08 10:18:26;;;;;;;6.05;1.23;;;12.60;99.90;;;;;;4973845;28;20438;-75
2022/08/08 10:21:00;;;;;;;4.65;1.67;;;12.60;99.90;;;;;;4974844;28;20472;-74
2022/08/08 10:23:41;;;;;;;7.03;2.00;;;12.60;99.90;;;;;;4973618;28;20387;-74
2022/08/08 10:26:37;;;;;;;9.70;1.80;;;12.50;99.90;;;;;;4975252;28;20078;-74
2022/08/08 10:29:09;;;;;;;7.35;1.77;;;12.50;99.90;;;;;;4974054;28;20432;-75
2022/08/08 10:34:28;;;;;;;6.55;1.30;;;12.30;99.90;;;;;;4974825;28;20038;-76
2022/08/08 10:36:56;;;;;;;7.65;2.00;;;12.20;99.90;;;;;;4975593;28;20027;-74
2022/08/08 10:39:27;;;;;;;8.95;1.83;;;12.20;99.90;;;;;;4975470;28;20041;-76
2022/08/08 10:41:59;;;;;;;9.85;1.90;;;12.20;99.90;;;;;;4958449;28;20031;-75
2022/08/08 10:44:38;;;;;;;4.60;1.48;;;12.10;99.90;;;;;;4973291;28;20034;-75
2022/08/08 10:47:14;;;;;;;6.85;1.45;;;12.20;99.90;;;;;;4973567;28;20030;-75
2022/08/08 10:49:50;;;;;;;4.82;1.00;;;12.20;99.90;;;;;;4974843;28;20106;-74
2022/08/08 10:52:47;;;;;;;7.13;1.30;;;12.10;99.90;;;;;;4973430;28;20049;-76
2022/08/08 10:55:19;;;;;;;7.60;1.63;;;12.10;99.90;;;;;;4958121;28;20101;-74
2022/08/08 10:57:49;;;;;;;5.93;1.00;;;12.00;99.90;;;;;;4975025;28;20038;-74
2022/08/08 11:00:23;;;;;;;7.57;1.70;;;12.00;99.90;;;;;;4974831;28;20027;-74
2022/08/08 11:02:51;;;;;;;2.15;0.93;;;11.90;99.90;;;;;;4974727;28;20488;-75
2022/08/08 11:05:19;;;;;;;7.28;1.23;;;11.90;99.90;;;;;;4978515;28;20026;-74
2022/08/08 11:07:53;;;;;;;7.22;1.75;;;11.80;99.90;;;;;;4977276;28;20023;-74
2022/08/08 11:10:22;;;;;;;8.07;1.50;;;11.80;99.90;;;;;;4977039;28;20623;-75
2022/08/08 11:12:54;;;;;;;6.40;1.35;;;11.80;99.90;;;;;;4977028;28;20030;-75
2022/08/08 11:15:28;;;;;;;5.10;1.40;;;11.70;99.90;;;;;;4978215;28;20509;-74
2022/08/08 11:17:56;;;;;;;7.20;1.67;;;11.70;99.90;;;;;;4977044;28;20041;-74
2022/08/08 11:20:27;;;;;;;9.55;1.48;;;11.60;99.90;;;;;;4978344;28;20027;-75
2022/08/08 11:22:58;;;;;;;;;;;11.60;99.90;;;;;;4979156;28;20033;-75
2022/08/08 11:25:29;;;;;;;;;;;11.60;99.90;;;;;;4977466;28;20342;-75
2022/08/08 11:27:59;;;;;;;3.03;1.25;;;11.60;99.90;;;;;;4960646;28;20007;-75
2022/08/08 11:30:34;;;;;;;3.58;1.10;;;11.50;99.90;;;;;;4977776;28;20018;-76
2022/08/08 11:33:04;;;;;;;3.80;1.40;;;11.40;99.90;;;;;;4977884;28;20035;-75
2022/08/08 11:35:31;;;;;;;5.57;1.15;;;11.30;99.90;;;;;;4976709;28;20062;-74
2022/08/08 11:37:59;;;;;;;4.60;1.33;;;11.20;99.90;;;;;;4977989;28;20528;-75
2022/08/08 11:40:27;;;;;;;6.05;1.40;;;11.20;99.90;;;;;;4976569;28;20049;-76
2022/08/08 11:42:55;;;;;;;8.07;2.45;;;11.10;99.90;;;;;;4976619;28;20110;-74
2022/08/08 11:45:23;;;;;;;7.25;1.92;;;11.00;99.90;;;;;;4976329;28;20070;-75
2022/08/08 11:47:51;;;;;;;4.10;1.55;;;10.90;99.90;;;;;;4976761;28;20031;-73
2022/08/08 11:50:20;;;;;;;5.38;1.60;;;10.90;99.90;;;;;;4976579;28;20019;-74
2022/08/08 11:52:48;;;;;;;6.38;1.73;;;10.90;99.90;;;;;;4978135;28;20023;-74
2022/08/08 11:55:16;;;;;;;12.18;2.38;;;10.80;99.90;;;;;;4976366;28;20057;-74
2022/08/08 11:57:44;;;;;;;10.40;1.60;;;10.80;99.90;;;;;;4977579;28;20113;-74
2022/08/08 12:00:16;;;;;;;6.40;1.42;;;10.70;99.90;;;;;;4977125;28;20031;-73
2022/08/08 12:02:56;;;;;;;5.38;1.70;;;10.70;99.90;;;;;;4977974;28;20352;-74
2022/08/08 12:05:35;;;;;;;7.72;1.60;;;10.60;99.90;;;;;;4976556;28;20411;-76
2022/08/08 12:08:03;;;;;;;5.10;1.80;;;10.50;99.90;;;;;;4977491;28;20019;-74
2022/08/08 12:10:32;;;;;;;3.22;1.20;;;10.40;99.90;;;;;;4977214;28;20023;-75
2022/08/08 12:13:09;;;;;;;5.45;1.63;;;10.40;99.90;;;;;;4977344;28;20027;-76
2022/08/08 12:15:39;;;;;;;3.95;1.50;;;10.40;99.90;;;;;;4976838;28;20026;-73
2022/08/08 12:18:18;;;;;;;3.92;1.10;;;10.40;99.90;;;;;;4977047;28;20022;-73
2022/08/08 12:20:46;;;;;;;4.18;1.33;;;10.40;99.90;;;;;;4975640;28;20038;-72
2022/08/08 12:23:15;;;;;;;2.90;1.33;;;10.30;99.90;;;;;;4975688;28;20019;-74
2022/08/08 12:25:42;;;;;;;4.90;1.67;;;10.30;99.90;;;;;;4977147;28;20023;-75
2022/08/08 12:28:13;;;;;;;4.40;1.48;;;10.30;99.90;;;;;;4959837;28;20023;-76
2022/08/08 12:30:45;;;;;;;5.85;1.50;;;10.20;99.90;;;;;;4977185;28;20033;-76
2022/08/08 12:33:20;;;;;;;4.85;1.35;;;10.20;99.90;;;;;;4976967;28;20451;-75
2022/08/08 12:35:47;;;;;;;5.53;1.83;;;10.20;99.90;;;;;;4975604;28;20538;-75
2022/08/08 12:38:15;;;;;;;3.80;1.48;;;10.20;99.90;;;;;;4975611;28;20027;-75
2022/08/08 12:40:53;;;;;;;4.63;1.33;;;10.10;99.90;;;;;;4975178;28;20479;-74
2022/08/08 12:43:34;;;;;;;6.25;1.35;;;10.10;99.90;;;;;;4975199;28;20415;-74
2022/08/08 12:46:01;;;;;;;;;;;10.10;99.90;;;;;;4977017;28;20047;-75
2022/08/08 12:48:28;;;;;;;2.33;1.48;;;10.10;99.90;;;;;;4974976;28;19906;-75
2022/08/08 12:50:57;;;;;;;3.72;0.93;;;10.10;99.90;;;;;;4976762;28;20050;-76
2022/08/08 12:53:25;;;;;;;4.47;1.20;;;10.10;99.90;;;;;;4976607;28;20061;-75
2022/08/08 12:56:01;;;;;;;3.00;1.40;;;10.10;99.90;;;;;;4977295;28;20077;-76
2022/08/08 12:58:41;;;;;;;2.58;1.10;;;10.10;99.90;;;;;;4975349;28;20114;-75
2022/08/08 13:01:09;;;;;;;;;;;10.10;99.90;;;;;;4976859;28;20034;-75
2022/08/08 13:03:43;;;;;;;2.55;1.10;;;10.10;99.90;;;;;;4976895;28;19913;-75
2022/08/08 13:06:15;;;;;;;3.03;0.80;;;10.10;99.90;;;;;;4975069;28;20034;-75
2022/08/08 13:08:43;;;;;;;3.40;1.25;;;10.10;99.90;;;;;;4959559;28;20416;-75
2022/08/08 13:11:32;;;;;;;3.65;1.42;;;10.10;99.90;;;;;;4976850;28;20027;-74
2022/08/08 13:14:02;;;;;;;2.70;0.80;;;10.00;99.90;;;;;;4975606;28;20027;-74
2022/08/08 13:16:33;;;;;;;4.20;0.88;;;10.00;99.90;;;;;;4976539;28;20023;-75
2022/08/08 13:19:06;;;;;;;2.35;1.00;;;10.00;99.90;;;;;;4975221;28;20033;-76
2022/08/08 13:21:47;;;;;;;2.65;0.88;;;10.00;99.90;;;;;;4974721;28;20510;-76
2022/08/08 13:24:14;;;;;;;3.63;0.90;;;10.00;99.90;;;;;;4976898;28;20372;-76
2022/08/08 13:26:41;;;;;;;1.98;0.65;;;9.90;99.90;;;;;;4976457;28;20033;-75
2022/08/08 13:29:11;;;;;;;2.03;1.00;;;9.90;99.90;;;;;;4976284;28;20033;-75
2022/08/08 13:31:49;;;;;;;4.53;0.90;;;9.90;99.90;;;;;;4974939;28;20030;-75
2022/08/08 13:34:24;;;;;;;1.45;0.88;;;9.80;99.90;;;;;;4976463;28;20269;-74
2022/08/08 13:36:53;;;;;;;3.42;0.75;;;9.90;99.90;;;;;;4975060;28;20026;-74